createdAt,value
2018-03-24T00:01:59.903Z,60.33
2018-03-24T00:04:27.570Z,67.20
2018-03-24T00:06:58.904Z,70.63
2018-03-24T00:09:26.591Z,63.67
2018-03-24T00:11:54.246Z,64.53
2018-03-24T00:14:21.944Z,64.87
2018-03-24T00:16:49.574Z,69.53
2018-03-24T00:19:17.230Z,71.53
2018-03-24T00:21:44.865Z,74.57
2018-03-24T00:24:12.497Z,76.83
2018-03-24T00:26:40.914Z,78.00
2018-03-24T00:29:08.568Z,73.37
2018-03-24T00:31:36.235Z,74.57
2018-03-24T00:34:03.943Z,76.63
2018-03-24T00:36:34.558Z,71.53
2018-03-24T00:39:02.187Z,62.87
2018-03-24T00:41:29.813Z,60.43
2018-03-24T00:43:57.420Z,65.33
2018-03-24T00:46:25.101Z,62.30
2018-03-24T00:48:52.747Z,56.10
2018-03-24T00:51:20.423Z,59.77
2018-03-24T00:53:48.039Z,59.67
2018-03-24T00:56:15.715Z,59.07
2018-03-24T00:58:43.404Z,54.67
2018-03-24T01:01:11.086Z,56.23
2018-03-24T01:03:38.735Z,54.10
2018-03-24T01:06:09.481Z,53.00
2018-03-24T01:08:37.210Z,54.13
2018-03-24T01:11:04.873Z,52.27
2018-03-24T01:13:32.563Z,56.87
2018-03-24T01:16:00.279Z,55.90
2018-03-24T01:18:27.937Z,56.57
2018-03-24T01:20:56.336Z,55.73
2018-03-24T01:23:23.970Z,55.37
2018-03-24T01:25:51.636Z,60.27
2018-03-24T01:28:19.280Z,62.27
2018-03-24T01:30:46.908Z,63.17
2018-03-24T01:33:14.554Z,64.03
2018-03-24T01:35:45.756Z,65.37
2018-03-24T01:38:13.415Z,64.43
2018-03-24T01:40:41.109Z,66.00
2018-03-24T01:43:08.784Z,60.20
2018-03-24T01:45:36.497Z,60.50
2018-03-24T01:48:04.114Z,67.40
2018-03-24T01:50:31.758Z,64.50
2018-03-24T01:53:00.141Z,72.80
2018-03-24T01:55:27.749Z,67.93
2018-03-24T01:57:55.427Z,75.13
2018-03-24T02:00:23.106Z,69.13
2018-03-24T02:02:50.806Z,73.00
2018-03-24T02:05:18.620Z,71.17
2018-03-24T02:07:46.335Z,68.80
2018-03-24T02:10:13.997Z,70.77
2018-03-24T02:12:41.653Z,65.80
2018-03-24T02:15:09.316Z,70.83
2018-03-24T02:17:37.758Z,66.90
2018-03-24T02:20:05.505Z,64.50
2018-03-24T02:22:33.204Z,68.00
2018-03-24T02:25:10.809Z,61.90
2018-03-24T02:27:39.248Z,63.13
2018-03-24T02:30:06.974Z,67.63
2018-03-24T02:32:34.632Z,68.83
2018-03-24T02:35:02.285Z,62.90
2018-03-24T02:37:29.947Z,61.57
2018-03-24T02:39:58.393Z,55.30
2018-03-24T02:42:26.078Z,55.37
2018-03-24T02:44:54.525Z,55.47
2018-03-24T02:47:22.193Z,56.77
2018-03-24T02:49:49.853Z,54.07
2018-03-24T02:52:17.514Z,57.40
2018-03-24T02:54:45.190Z,52.63
2018-03-24T02:57:12.867Z,52.70
2018-03-24T02:59:40.520Z,58.10
2018-03-24T03:02:08.204Z,53.43
2018-03-24T03:04:36.648Z,57.90
2018-03-24T03:07:04.359Z,60.03
2018-03-24T03:09:32.775Z,63.33
2018-03-24T03:12:00.422Z,61.27
2018-03-24T03:14:28.101Z,68.40
2018-03-24T03:16:59.166Z,77.13
2018-03-24T03:19:26.867Z,63.53
2018-03-24T03:21:55.334Z,66.30
2018-03-24T03:24:22.979Z,69.60
2018-03-24T03:26:51.177Z,61.60
2018-03-24T03:29:18.828Z,63.80
2018-03-24T03:31:47.165Z,68.70
2018-03-24T03:34:14.820Z,67.00
2018-03-24T03:36:42.513Z,68.23
2018-03-24T03:39:10.180Z,60.47
2018-03-24T03:41:37.831Z,71.97
2018-03-24T03:44:05.492Z,64.73
2018-03-24T03:46:33.245Z,66.37
2018-03-24T03:49:00.922Z,65.77
2018-03-24T03:51:28.583Z,69.97
2018-03-24T03:53:56.224Z,74.97
2018-03-24T03:56:23.867Z,74.63
2018-03-24T03:58:52.147Z,78.27
2018-03-24T04:01:19.790Z,70.50
2018-03-24T04:03:47.484Z,66.53
2018-03-24T04:06:15.166Z,69.60
2018-03-24T04:08:42.824Z,73.80
2018-03-24T04:11:10.463Z,74.53
2018-03-24T04:13:38.440Z,68.30
2018-03-24T04:16:12.872Z,69.80
2018-03-24T04:18:40.551Z,78.97
2018-03-24T04:21:08.195Z,74.13
2018-03-24T04:23:35.862Z,77.17
2018-03-24T04:26:03.525Z,78.87
2018-03-24T04:28:31.188Z,86.27
2018-03-24T04:30:58.828Z,82.03
2018-03-24T04:33:27.269Z,79.30
2018-03-24T04:35:54.845Z,81.13
2018-03-24T04:38:22.517Z,75.70
2018-03-24T04:40:50.377Z,88.07
2018-03-24T04:43:18.047Z,83.33
2018-03-24T04:45:46.673Z,92.10
2018-03-24T04:48:14.316Z,92.83
2018-03-24T04:50:41.958Z,93.20
2018-03-24T04:53:09.635Z,82.23
2018-03-24T04:55:38.086Z,84.30
2018-03-24T04:58:05.765Z,90.93
2018-03-24T05:00:33.478Z,86.77
2018-03-24T05:03:01.890Z,83.93
2018-03-24T05:05:29.520Z,81.27
2018-03-24T05:07:57.160Z,80.83
2018-03-24T05:10:25.591Z,83.03
2018-03-24T05:12:53.246Z,89.17
2018-03-24T05:15:22.010Z,89.27
2018-03-24T05:17:49.688Z,79.67
2018-03-24T05:20:17.329Z,97.53
2018-03-24T05:22:45.016Z,105.17
2018-03-24T05:25:12.652Z,89.13
2018-03-24T05:27:40.295Z,86.80
2018-03-24T05:30:07.898Z,92.13
2018-03-24T05:32:35.708Z,99.23
2018-03-24T05:35:03.407Z,85.33
2018-03-24T05:37:31.077Z,89.97
2018-03-24T05:39:58.778Z,86.07
2018-03-24T05:42:26.425Z,89.40
2018-03-24T05:44:54.087Z,88.47
2018-03-24T05:47:21.719Z,88.63
2018-03-24T05:49:49.298Z,85.00
2018-03-24T05:52:16.874Z,78.73
2018-03-24T05:54:45.369Z,87.40
2018-03-24T05:57:12.978Z,83.23
2018-03-24T05:59:40.562Z,95.00
2018-03-24T06:02:08.221Z,92.87
2018-03-24T06:04:36.069Z,99.90
2018-03-24T06:07:07.472Z,89.27
2018-03-24T06:09:35.090Z,89.73
2018-03-24T06:12:02.695Z,94.27
2018-03-24T06:14:30.327Z,80.27
2018-03-24T06:16:57.946Z,79.97
2018-03-24T06:19:25.591Z,89.83
2018-03-24T06:21:53.218Z,78.93
2018-03-24T06:24:20.802Z,86.10
2018-03-24T06:26:48.463Z,76.07
2018-03-24T06:29:16.174Z,68.87
2018-03-24T06:31:55.494Z,79.63
2018-03-24T06:34:23.202Z,83.00
2018-03-24T06:36:56.543Z,80.37
2018-03-24T06:39:24.172Z,88.13
2018-03-24T06:41:51.867Z,94.10
2018-03-24T06:44:19.571Z,85.37
2018-03-24T06:46:48.386Z,71.37
2018-03-24T06:49:16.046Z,63.23
2018-03-24T06:51:43.769Z,63.73
2018-03-24T06:54:11.428Z,66.53
2018-03-24T06:56:39.085Z,64.53
2018-03-24T06:59:06.774Z,67.40
2018-03-24T07:01:34.443Z,60.07
2018-03-24T07:04:02.144Z,54.60
2018-03-24T07:06:29.722Z,52.77
2018-03-24T07:08:57.353Z,51.03
2018-03-24T07:11:24.939Z,55.50
2018-03-24T07:13:52.614Z,49.07
2018-03-24T07:16:23.945Z,49.10
2018-03-24T07:18:51.590Z,47.50
2018-03-24T07:21:19.261Z,52.47
2018-03-24T07:23:46.946Z,52.27
2018-03-24T07:26:14.592Z,43.53
2018-03-24T07:28:42.296Z,47.30
2018-03-24T07:31:09.945Z,49.03
2018-03-24T07:33:37.703Z,46.73
2018-03-24T07:36:05.358Z,47.20
2018-03-24T07:38:32.976Z,47.43
2018-03-24T07:41:00.683Z,47.53
2018-03-24T07:43:28.269Z,46.23
2018-03-24T07:45:59.186Z,46.43
2018-03-24T07:48:26.817Z,42.23
2018-03-24T07:50:54.396Z,46.53
2018-03-24T07:53:22.030Z,51.40
2018-03-24T07:55:49.720Z,49.20
2018-03-24T07:58:17.311Z,47.63
2018-03-24T08:00:44.894Z,47.60
2018-03-24T08:03:12.489Z,44.20
2018-03-24T08:05:40.093Z,48.13
2018-03-24T08:08:07.791Z,43.80
2018-03-24T08:10:35.459Z,43.70
2018-03-24T08:13:03.118Z,45.43
2018-03-24T08:15:32.525Z,45.63
2018-03-24T08:18:00.957Z,48.83
2018-03-24T08:20:28.635Z,48.23
2018-03-24T08:22:56.230Z,47.27
2018-03-24T08:25:23.838Z,53.27
2018-03-24T08:27:51.500Z,46.77
2018-03-24T08:30:19.121Z,44.97
2018-03-24T08:32:51.554Z,42.27
2018-03-24T08:35:19.549Z,44.90
2018-03-24T08:37:47.989Z,40.53
2018-03-24T08:40:15.847Z,36.80
2018-03-24T08:42:43.493Z,38.63
2018-03-24T08:45:11.168Z,37.83
2018-03-24T08:47:39.586Z,37.07
2018-03-24T08:50:07.268Z,34.93
2018-03-24T08:52:41.584Z,35.73
2018-03-24T08:55:10.044Z,27.03
2018-03-24T08:57:37.680Z,26.33
2018-03-24T09:00:05.406Z,26.90
2018-03-24T09:02:33.118Z,23.17
2018-03-24T09:05:00.827Z,20.83
2018-03-24T09:07:28.429Z,24.13
2018-03-24T09:09:56.010Z,22.17
2018-03-24T09:12:23.689Z,25.30
2018-03-24T09:14:51.336Z,24.13
2018-03-24T09:17:26.056Z,26.03
2018-03-24T09:19:53.709Z,28.07
2018-03-24T09:22:21.430Z,25.67
2018-03-24T09:24:49.062Z,26.97
2018-03-24T09:27:16.744Z,22.67
2018-03-24T09:29:44.387Z,28.17
2018-03-24T09:32:12.095Z,25.93
2018-03-24T09:34:39.775Z,27.17
2018-03-24T09:37:07.493Z,27.17
2018-03-24T09:39:35.703Z,25.33
2018-03-24T09:42:03.347Z,24.73
2018-03-24T09:44:31.765Z,26.77
2018-03-24T09:47:08.451Z,26.07
2018-03-24T09:49:36.597Z,26.90
2018-03-24T09:52:04.294Z,22.57
2018-03-24T09:54:31.996Z,23.10
2018-03-24T09:56:59.675Z,22.53
2018-03-24T09:59:28.004Z,23.07
2018-03-24T10:01:55.703Z,24.83
2018-03-24T10:04:23.358Z,21.13
2018-03-24T10:06:54.916Z,23.50
2018-03-24T10:09:22.626Z,24.50
2018-03-24T10:11:50.265Z,22.63
2018-03-24T10:14:17.954Z,20.83
2018-03-24T10:16:45.590Z,22.03
2018-03-24T10:19:13.697Z,20.33
2018-03-24T10:24:37.193Z,24.47
2018-03-24T10:27:11.996Z,21.73
2018-03-24T10:29:40.126Z,23.10
2018-03-24T10:32:07.819Z,21.97
2018-03-24T10:34:36.283Z,21.53
2018-03-24T10:37:03.949Z,21.50
2018-03-24T10:39:32.409Z,20.77
2018-03-24T10:42:00.092Z,18.40
2018-03-24T10:44:27.866Z,19.87
2018-03-24T10:46:57.699Z,19.57
2018-03-24T10:49:25.353Z,20.63
2018-03-24T10:51:53.760Z,19.37
2018-03-24T10:54:21.447Z,19.60
2018-03-24T10:56:52.318Z,18.23
2018-03-24T10:59:20.736Z,15.73
2018-03-24T11:01:48.464Z,18.03
2018-03-24T11:04:16.137Z,20.03
2018-03-24T11:06:44.596Z,22.03
2018-03-24T11:09:12.262Z,23.03
2018-03-24T11:11:39.986Z,21.93
2018-03-24T11:14:07.715Z,20.43
2018-03-24T11:16:36.172Z,18.03
2018-03-24T11:19:03.855Z,17.67
2018-03-24T11:21:33.551Z,19.73
2018-03-24T11:24:01.171Z,19.60
2018-03-24T11:26:37.419Z,19.93
2018-03-24T11:29:05.130Z,17.60
2018-03-24T11:31:32.770Z,18.37
2018-03-24T11:34:00.475Z,17.50
2018-03-24T11:36:28.135Z,16.57
2018-03-24T11:38:55.782Z,16.33
2018-03-24T11:41:23.419Z,18.47
2018-03-24T11:43:51.065Z,19.97
2018-03-24T11:46:18.652Z,18.77
2018-03-24T11:48:46.234Z,16.67
2018-03-24T11:51:13.840Z,15.30
2018-03-24T11:53:47.457Z,16.67
2018-03-24T11:56:15.222Z,17.23
2018-03-24T11:58:42.893Z,17.17
2018-03-24T12:01:10.508Z,17.20
2018-03-24T12:03:38.111Z,17.63
2018-03-24T12:06:05.703Z,17.00
2018-03-24T12:08:33.281Z,18.27
2018-03-24T12:11:00.886Z,19.30
2018-03-24T12:13:28.580Z,23.27
2018-03-24T12:15:56.249Z,25.30
2018-03-24T12:18:23.915Z,24.17
2018-03-24T12:20:51.722Z,22.77
2018-03-24T12:23:19.315Z,18.50
2018-03-24T12:25:50.583Z,17.30
2018-03-24T12:28:18.205Z,18.13
2018-03-24T12:30:46.424Z,15.80
2018-03-24T12:33:14.608Z,16.90
2018-03-24T12:36:00.360Z,17.63
2018-03-24T12:38:28.222Z,18.50
2018-03-24T12:40:55.935Z,17.90
2018-03-24T12:43:23.614Z,18.03
2018-03-24T12:45:58.976Z,18.63
2018-03-24T12:48:26.606Z,18.50
2018-03-24T12:50:54.280Z,18.70
2018-03-24T12:53:22.043Z,18.87
2018-03-24T12:55:51.009Z,19.17
2018-03-24T12:58:19.733Z,21.70
2018-03-24T13:00:48.237Z,19.30
2018-03-24T13:03:15.889Z,22.87
2018-03-24T13:05:44.329Z,20.97
2018-03-24T13:08:11.983Z,19.40
2018-03-24T13:10:39.654Z,20.80
2018-03-24T13:13:07.313Z,20.27
2018-03-24T13:15:48.810Z,20.40
2018-03-24T13:18:16.512Z,20.00
2018-03-24T13:20:44.911Z,22.43
2018-03-24T13:23:12.622Z,19.13
2018-03-24T13:25:40.309Z,19.33
2018-03-24T13:28:08.755Z,21.60
2018-03-24T13:30:36.404Z,21.10
2018-03-24T13:33:04.046Z,23.13
2018-03-24T13:35:31.720Z,20.20
2018-03-24T13:38:00.365Z,20.23
2018-03-24T13:40:28.022Z,20.87
2018-03-24T13:42:56.463Z,20.93
2018-03-24T13:45:27.510Z,21.00
2018-03-24T13:47:55.242Z,20.30
2018-03-24T13:50:22.946Z,18.67
2018-03-24T13:52:50.654Z,21.13
2018-03-24T13:55:19.117Z,20.10
2018-03-24T13:57:46.865Z,19.47
2018-03-24T14:00:16.279Z,18.87
2018-03-24T14:02:43.939Z,21.43
2018-03-24T14:05:11.650Z,19.73
2018-03-24T14:07:39.316Z,22.40
2018-03-24T14:10:07.023Z,19.60
2018-03-24T14:12:34.675Z,18.70
2018-03-24T14:15:02.414Z,19.27
2018-03-24T14:17:30.057Z,17.10
2018-03-24T14:19:57.775Z,18.77
2018-03-24T14:22:26.074Z,15.93
2018-03-24T14:24:53.772Z,18.30
2018-03-24T14:27:21.433Z,17.77
2018-03-24T14:29:49.138Z,18.67
2018-03-24T14:32:16.824Z,18.67
2018-03-24T14:34:44.480Z,18.73
2018-03-24T14:37:18.943Z,16.13
2018-03-24T14:39:46.610Z,16.37
2018-03-24T14:42:14.292Z,16.53
2018-03-24T14:44:41.939Z,15.70
2018-03-24T14:47:09.614Z,18.17
2018-03-24T14:49:37.287Z,17.97
2018-03-24T14:52:05.001Z,18.07
2018-03-24T14:54:32.706Z,20.50
2018-03-24T14:57:00.403Z,19.70
2018-03-24T14:59:28.092Z,18.57
2018-03-24T15:01:56.539Z,18.63
2018-03-24T15:04:24.216Z,18.23
2018-03-24T15:06:55.357Z,18.03
2018-03-24T15:09:23.036Z,19.27
2018-03-24T15:11:50.718Z,19.30
2018-03-24T15:14:18.407Z,19.00
2018-03-24T15:16:46.214Z,18.80
2018-03-24T15:19:13.897Z,18.23
2018-03-24T15:21:41.552Z,18.80
2018-03-24T15:24:09.292Z,18.30
2018-03-24T15:26:37.010Z,18.03
2018-03-24T15:29:17.246Z,18.20
2018-03-24T15:31:56.725Z,16.43
2018-03-24T15:34:36.229Z,17.17
2018-03-24T15:37:04.694Z,17.17
2018-03-24T15:39:32.393Z,16.77
2018-03-24T15:42:00.840Z,20.00
2018-03-24T15:44:28.507Z,17.90
2018-03-24T15:46:57.138Z,16.03
2018-03-24T15:49:24.859Z,18.73
2018-03-24T15:51:52.567Z,19.13
2018-03-24T15:54:20.248Z,16.17
2018-03-24T15:56:47.939Z,16.60
2018-03-24T15:59:15.639Z,15.17
2018-03-24T16:01:43.314Z,16.03
2018-03-24T16:04:10.995Z,15.27
2018-03-24T16:06:38.698Z,14.87
2018-03-24T16:09:06.371Z,16.10
2018-03-24T16:11:33.972Z,16.07
2018-03-24T16:14:01.604Z,16.73
2018-03-24T16:16:35.311Z,15.40
2018-03-24T16:19:04.144Z,16.87
2018-03-24T16:21:31.875Z,16.17
2018-03-24T16:23:59.521Z,16.93
2018-03-24T16:26:27.197Z,18.23
2018-03-24T16:28:55.643Z,16.97
2018-03-24T16:31:23.299Z,18.33
2018-03-24T16:33:50.973Z,16.90
2018-03-24T16:36:18.650Z,17.10
2018-03-24T16:38:46.326Z,16.00
2018-03-24T16:41:14.010Z,15.20
2018-03-24T16:43:41.722Z,17.17
2018-03-24T16:46:09.505Z,15.67
2018-03-24T16:48:37.158Z,15.67
2018-03-24T16:51:04.857Z,15.67
2018-03-24T16:53:32.511Z,16.40
2018-03-24T16:56:00.963Z,14.40
2018-03-24T16:58:28.602Z,14.30
2018-03-24T17:00:56.225Z,14.33
2018-03-24T17:03:24.671Z,15.57
2018-03-24T17:05:52.487Z,15.90
2018-03-24T17:08:20.203Z,15.23
2018-03-24T17:10:47.914Z,15.00
2018-03-24T17:13:15.649Z,16.03
2018-03-24T17:15:43.326Z,15.33
2018-03-24T17:18:10.989Z,14.57
2018-03-24T17:20:39.421Z,13.93
2018-03-24T17:23:07.084Z,16.70
2018-03-24T17:25:34.754Z,16.03
2018-03-24T17:28:02.503Z,16.67
2018-03-24T17:30:30.221Z,15.40
2018-03-24T17:32:57.880Z,16.23
2018-03-24T17:35:25.965Z,15.43
2018-03-24T17:37:53.616Z,14.53
2018-03-24T17:40:21.306Z,14.50
2018-03-24T17:42:49.121Z,15.27
2018-03-24T17:45:18.974Z,15.67
2018-03-24T17:47:46.654Z,15.03
2018-03-24T17:50:14.752Z,15.77
2018-03-24T17:52:42.444Z,16.70
2018-03-24T17:55:10.142Z,17.23
2018-03-24T17:57:37.849Z,15.40
2018-03-24T18:00:05.524Z,14.67
2018-03-24T18:02:33.209Z,15.77
2018-03-24T18:05:00.874Z,14.50
2018-03-24T18:07:28.554Z,17.93
2018-03-24T18:09:56.228Z,14.80
2018-03-24T18:12:23.918Z,17.50
2018-03-24T18:14:51.590Z,16.40
2018-03-24T18:17:19.299Z,18.20
2018-03-24T18:19:47.016Z,19.23
2018-03-24T18:22:14.720Z,20.30
2018-03-24T18:24:42.367Z,23.07
2018-03-24T18:27:10.020Z,21.20
2018-03-24T18:29:37.684Z,19.80
2018-03-24T18:32:05.391Z,19.90
2018-03-24T18:34:33.072Z,21.90
2018-03-24T18:37:11.156Z,19.07
2018-03-24T18:39:39.854Z,22.80
2018-03-24T18:42:08.369Z,23.27
2018-03-24T18:44:36.046Z,17.83
2018-03-24T18:47:03.751Z,16.27
2018-03-24T18:49:32.443Z,16.10
2018-03-24T18:52:00.861Z,14.67
2018-03-24T18:54:28.547Z,16.03
2018-03-24T18:56:56.254Z,14.80
2018-03-24T18:59:23.892Z,16.67
2018-03-24T19:01:51.885Z,16.30
2018-03-24T19:04:20.334Z,16.80
2018-03-24T19:06:48.102Z,17.43
2018-03-24T19:09:15.839Z,15.97
2018-03-24T19:11:43.508Z,19.97
2018-03-24T19:14:11.210Z,16.70
2018-03-24T19:16:38.894Z,19.10
2018-03-24T19:19:07.366Z,17.40
2018-03-24T19:21:35.044Z,17.40
2018-03-24T19:24:02.689Z,17.77
2018-03-24T19:26:31.140Z,19.03
2018-03-24T19:28:58.839Z,18.87
2018-03-24T19:31:27.348Z,18.40
2018-03-24T19:33:55.023Z,21.63
2018-03-24T19:36:22.814Z,19.87
2018-03-24T19:38:50.502Z,19.97
2018-03-24T19:41:18.140Z,20.90
2018-03-24T19:43:45.838Z,20.37
2018-03-24T19:46:13.520Z,19.40
2018-03-24T19:48:41.162Z,19.83
2018-03-24T19:51:08.851Z,20.40
2018-03-24T19:53:36.526Z,20.93
2018-03-24T19:56:04.240Z,21.40
2018-03-24T19:58:31.913Z,23.93
2018-03-24T20:01:00.365Z,24.60
2018-03-24T20:03:28.017Z,22.93
2018-03-24T20:05:59.713Z,23.93
2018-03-24T20:08:27.313Z,27.47
2018-03-24T20:10:54.975Z,24.50
2018-03-24T20:13:22.639Z,26.87
2018-03-24T20:15:50.371Z,27.63
2018-03-24T20:18:18.823Z,28.57
2018-03-24T20:20:46.512Z,27.43
2018-03-24T20:23:14.181Z,27.63
2018-03-24T20:25:41.880Z,26.67
2018-03-24T20:28:09.549Z,24.83
2018-03-24T20:30:37.221Z,21.10
2018-03-24T20:33:04.988Z,22.77
2018-03-24T20:35:38.392Z,21.77
2018-03-24T20:38:06.064Z,21.67
2018-03-24T20:40:33.771Z,19.10
2018-03-24T20:43:01.451Z,23.13
2018-03-24T20:45:29.118Z,22.37
2018-03-24T20:47:56.820Z,23.37
2018-03-24T20:50:24.502Z,23.40
2018-03-24T20:52:52.207Z,23.53
2018-03-24T20:55:19.874Z,23.77
2018-03-24T20:57:48.357Z,24.83
2018-03-24T21:00:15.996Z,25.23
2018-03-24T21:02:44.457Z,23.93
2018-03-24T21:05:37.067Z,23.77
2018-03-24T21:08:04.789Z,24.63
2018-03-24T21:10:33.242Z,26.70
2018-03-24T21:13:00.948Z,26.03
2018-03-24T21:15:28.642Z,27.93
2018-03-24T21:17:56.547Z,26.73
2018-03-24T21:20:24.214Z,26.03
2018-03-24T21:22:51.871Z,26.10
2018-03-24T21:25:19.536Z,22.87
2018-03-24T21:27:47.202Z,24.83
2018-03-24T21:30:14.803Z,23.50
2018-03-24T21:32:42.501Z,22.83
2018-03-24T21:35:12.667Z,22.50
2018-03-24T21:37:41.126Z,23.27
2018-03-24T21:40:08.817Z,25.10
2018-03-24T21:42:36.511Z,22.67
2018-03-24T21:45:04.224Z,23.40
2018-03-24T21:47:31.912Z,22.63
2018-03-24T21:49:59.550Z,21.97
2018-03-24T21:52:27.206Z,23.00
2018-03-24T21:54:54.882Z,22.80
2018-03-24T21:57:28.836Z,22.20
2018-03-24T21:59:56.510Z,21.93
2018-03-24T22:02:24.152Z,23.50
2018-03-24T22:04:51.976Z,24.30
2018-03-24T22:07:19.641Z,26.67
2018-03-24T22:09:47.334Z,22.97
2018-03-24T22:12:15.001Z,23.57
2018-03-24T22:14:42.678Z,22.80
2018-03-24T22:17:10.380Z,23.97
2018-03-24T22:19:38.053Z,23.73
2018-03-24T22:22:05.711Z,23.93
2018-03-24T22:24:33.402Z,24.13
2018-03-24T22:27:03.130Z,25.67
2018-03-24T22:29:31.513Z,24.93
2018-03-24T22:31:59.151Z,24.40
2018-03-24T22:34:26.821Z,27.33
2018-03-24T22:36:54.528Z,23.40
2018-03-24T22:39:22.263Z,24.70
2018-03-24T22:41:50.248Z,26.47
2018-03-24T22:44:17.887Z,23.07
2018-03-24T22:46:45.526Z,26.60
2018-03-24T22:49:13.230Z,23.20
2018-03-24T22:51:40.924Z,27.70
2018-03-24T22:54:08.623Z,24.47
2018-03-24T22:56:43.120Z,24.37
2018-03-24T22:59:10.823Z,26.17
2018-03-24T23:01:39.318Z,25.73
2018-03-24T23:04:06.994Z,26.90
2018-03-24T23:06:34.728Z,25.87
2018-03-24T23:09:02.450Z,26.63
2018-03-24T23:11:30.133Z,26.50
2018-03-24T23:13:57.808Z,26.50
2018-03-24T23:16:25.465Z,26.57
2018-03-24T23:18:53.142Z,27.03
2018-03-24T23:21:20.871Z,27.33
2018-03-24T23:23:48.578Z,26.80
2018-03-24T23:26:24.255Z,29.43
2018-03-24T23:28:52.002Z,27.33
2018-03-24T23:31:20.422Z,29.67
2018-03-24T23:33:48.129Z,29.83
2018-03-24T23:36:16.580Z,28.13
2018-03-24T23:38:44.250Z,27.27
2018-03-24T23:41:11.985Z,29.97
2018-03-24T23:43:40.157Z,29.77
2018-03-24T23:46:07.862Z,28.00
2018-03-24T23:48:35.527Z,24.13
2018-03-24T23:51:03.217Z,28.63
2018-03-24T23:53:30.887Z,27.67
2018-03-24T23:56:02.096Z,30.97
2018-03-24T23:58:29.758Z,28.97
